KDMN/DMN METAR and TAF weather

Enter ICAO airport designator
Station Type Date Time Source
KDMN METAR 2018/12/13 14:53 UTC NOAA

KDMN 131453Z AUTO 31003KT 10SM CLR 03/M16 A3023 RMK AO2 SLP215 T00331161 53036


Station Type Date Time Source
KDMN Decoded METAR 2018/12/13 14:53 UTC NOAA

DEMING MUNICIPAL AIRPORT, NM, United States (KDMN) 32-16N 107-43W 1311M
Dec 13, 2018 - 09:53 AM EST / 2018.12.13 1453 UTC
Wind: from the NW (310 degrees) at 3 MPH (3 KT):0
Visibility: 10 mile(s):0
Sky conditions: clear
Temperature: 37.9 F (3.3 C)
Dew Point: 3.0 F (-16.1 C)
Relative Humidity: 22%
Pressure (altimeter): 30.23 in. Hg (1023 hPa)
Pressure tendency: 0.11 inches (3.6 hPa) higher than three hours ago
ob: KDMN 131453Z AUTO 31003KT 10SM CLR 03/M16 A3023 RMK AO2 SLP215 T00331161 53036
cycle: 15

Station Type Date Time Source
KDMN TAF 2018/12/13 12:22 UTC NOAA

TAF KDMN 131120Z 1312/1412 33012KT P6SM SKC
FM131600 01011KT P6SM FEW080
FM140100 26006KT P6SM SKC


Example: see airport list